createdAt,value
2022-09-20T00:01:14.025Z,100777.19
2022-09-20T00:04:16.041Z,100756.91
2022-09-20T00:07:17.986Z,100777.63
2022-09-20T00:10:22.506Z,100783.66
2022-09-20T00:13:24.489Z,100782.63
2022-09-20T00:16:29.498Z,100778.19
2022-09-20T00:19:31.421Z,100765.88
2022-09-20T00:22:33.328Z,100773.41
2022-09-20T00:25:35.374Z,100773.22
2022-09-20T00:28:37.441Z,100769.44
2022-09-20T00:31:41.558Z,100761.69
2022-09-20T00:35:01.888Z,100765.03
2022-09-20T00:38:03.841Z,100766.50
2022-09-20T00:41:05.866Z,100764.81
2022-09-20T00:44:47.872Z,100762.75
2022-09-20T00:48:06.540Z,100760.63
2022-09-20T00:51:15.280Z,100753.09
2022-09-20T00:54:20.851Z,100740.13
2022-09-20T00:57:23.838Z,100752.44
2022-09-20T01:00:27.303Z,100749.75
2022-09-20T01:03:31.457Z,100754.19
2022-09-20T01:06:34.248Z,100742.06
2022-09-20T01:09:36.268Z,100744.53
2022-09-20T01:12:40.766Z,100738.44
2022-09-20T01:15:46.361Z,100728.19
2022-09-20T01:18:49.644Z,100730.91
2022-09-20T01:21:53.524Z,100744.94
2022-09-20T01:25:10.323Z,100744.94
2022-09-20T01:28:12.541Z,100747.25
2022-09-20T01:31:36.389Z,100752.50
2022-09-20T01:35:04.303Z,100745.63
2022-09-20T01:38:21.214Z,100725.72
2022-09-20T01:41:31.909Z,100716.72
2022-09-20T01:44:58.510Z,100719.19
2022-09-20T01:48:24.311Z,100723.78
2022-09-20T01:52:00.469Z,100724.41
2022-09-20T01:55:36.165Z,100720.00
2022-09-20T01:59:19.445Z,100713.72
2022-09-20T02:02:32.109Z,100719.78
2022-09-20T02:05:34.084Z,100720.66
2022-09-20T02:08:48.890Z,100718.97
2022-09-20T02:11:59.810Z,100721.91
2022-09-20T02:15:14.656Z,100715.66
2022-09-20T02:18:58.323Z,100725.06
2022-09-20T02:22:09.077Z,100731.38
2022-09-20T02:25:35.904Z,100732.25
2022-09-20T02:29:12.719Z,100736.81
2022-09-20T02:32:32.756Z,100730.34
2022-09-20T02:35:37.627Z,100739.53
2022-09-20T02:38:49.794Z,100733.72
2022-09-20T02:41:53.559Z,100742.47
2022-09-20T02:45:08.629Z,100744.38
2022-09-20T02:48:11.224Z,100735.16
2022-09-20T02:51:31.829Z,100736.81
2022-09-20T02:54:51.504Z,100730.13
2022-09-20T02:58:21.964Z,100723.84
2022-09-20T03:01:26.871Z,100745.78
2022-09-20T03:04:50.382Z,100754.00
2022-09-20T03:08:21.752Z,100753.78
2022-09-20T03:11:44.293Z,100748.56
2022-09-20T03:15:16.886Z,100754.03
2022-09-20T03:18:44.566Z,100758.19
2022-09-20T03:22:04.861Z,100750.88
2022-09-20T03:25:42.543Z,100757.59
2022-09-20T03:29:12.045Z,100758.22
2022-09-20T03:32:36.770Z,100760.31
2022-09-20T03:35:50.941Z,100753.38
2022-09-20T03:38:58.485Z,100768.69
2022-09-20T03:42:03.169Z,100773.69
2022-09-20T03:45:34.679Z,100774.72
2022-09-20T03:48:39.343Z,100776.66
2022-09-20T03:51:50.097Z,100781.03
2022-09-20T03:55:30.591Z,100781.03
2022-09-20T03:58:50.643Z,100782.28
2022-09-20T04:02:16.727Z,100779.78
2022-09-20T04:05:30.696Z,100776.00
2022-09-20T04:09:09.759Z,100779.78
2022-09-20T04:12:28.423Z,100778.53
2022-09-20T04:15:40.308Z,100778.13
2022-09-20T04:19:01.298Z,100786.69
2022-09-20T04:22:03.746Z,100756.97
2022-09-20T04:25:16.167Z,100782.69
2022-09-20T04:28:26.117Z,100789.19
2022-09-20T04:31:43.184Z,100804.88
2022-09-20T04:35:16.409Z,100798.63
2022-09-20T04:38:21.139Z,100794.63
2022-09-20T04:41:44.676Z,100793.41
2022-09-20T04:45:10.850Z,100797.81
2022-09-20T04:48:13.477Z,100802.19
2022-09-20T04:51:59.080Z,100811.38
2022-09-20T04:55:27.278Z,100814.53
2022-09-20T04:58:37.460Z,100819.31
2022-09-20T05:02:16.767Z,100817.88
2022-09-20T05:05:32.348Z,100818.53
2022-09-20T05:08:40.970Z,100825.63
2022-09-20T05:12:07.034Z,100826.25
2022-09-20T05:15:26.657Z,100821.84
2022-09-20T05:18:40.564Z,100828.13
2022-09-20T05:22:01.743Z,100814.53
2022-09-20T05:25:12.295Z,100826.66
2022-09-20T05:28:28.748Z,100831.69
2022-09-20T05:31:55.153Z,100830.66
2022-09-20T05:35:18.796Z,100829.84
2022-09-20T05:39:13.025Z,100834.44
2022-09-20T05:42:34.689Z,100837.56
2022-09-20T05:46:03.995Z,100834.63
2022-09-20T05:49:20.713Z,100834.84
2022-09-20T05:52:41.471Z,100841.09
2022-09-20T05:55:52.735Z,100834.81
2022-09-20T05:59:30.077Z,100833.56
2022-09-20T06:02:54.150Z,100848.22
2022-09-20T06:06:07.234Z,100845.50
2022-09-20T06:09:09.293Z,100845.28
2022-09-20T06:12:18.022Z,100850.78
2022-09-20T06:15:36.144Z,100840.91
2022-09-20T06:18:50.360Z,100852.22
2022-09-20T06:21:55.831Z,100847.84
2022-09-20T06:25:09.865Z,100849.06
2022-09-20T06:28:20.842Z,100850.53
2022-09-20T06:31:22.822Z,100852.03
2022-09-20T06:34:27.041Z,100848.88
2022-09-20T06:38:00.951Z,100850.53
2022-09-20T06:41:22.803Z,100856.63
2022-09-20T06:44:24.841Z,100860.38
2022-09-20T06:47:27.187Z,100854.53
2022-09-20T06:50:29.179Z,100866.88
2022-09-20T06:53:34.518Z,100854.53
2022-09-20T06:56:36.845Z,100857.06
2022-09-20T06:59:39.200Z,100855.78
2022-09-20T07:02:41.392Z,100862.69
2022-09-20T07:05:43.375Z,100862.69
2022-09-20T07:08:48.153Z,100861.88
2022-09-20T07:11:50.098Z,100866.47
2022-09-20T07:14:52.153Z,100857.25
2022-09-20T07:17:54.431Z,100871.09
2022-09-20T07:20:58.842Z,100868.56
2022-09-20T07:24:02.023Z,100869.00
2022-09-20T07:27:05.253Z,100865.56
2022-09-20T07:30:08.440Z,100878.13
2022-09-20T07:33:12.030Z,100883.00
2022-09-20T07:36:14.342Z,100872.09
2022-09-20T07:39:17.400Z,100873.59
2022-09-20T07:42:19.297Z,100875.03
2022-09-20T07:45:21.332Z,100878.19
2022-09-20T07:48:25.997Z,100878.84
2022-09-20T07:51:27.922Z,100873.81
2022-09-20T07:54:30.232Z,100874.00
2022-09-20T07:57:37.440Z,100865.00
2022-09-20T08:00:39.622Z,100872.97
2022-09-20T08:03:43.065Z,100868.56
2022-09-20T08:06:45.791Z,100871.09
2022-09-20T08:09:47.723Z,100865.81
2022-09-20T08:16:15.830Z,100858.94
2022-09-20T08:19:20.965Z,100875.06
2022-09-20T08:22:23.333Z,100866.66
2022-09-20T08:25:25.272Z,100866.47
2022-09-20T08:28:27.206Z,100857.25
2022-09-20T08:31:37.329Z,100852.84
2022-09-20T08:34:40.855Z,100873.81
2022-09-20T08:37:46.425Z,100866.66
2022-09-20T08:40:49.588Z,100854.34
2022-09-20T08:43:56.994Z,100861.88
2022-09-20T08:47:22.487Z,100862.69
2022-09-20T08:50:24.736Z,100861.63
2022-09-20T08:53:29.037Z,100859.56
2022-09-20T08:56:36.629Z,100849.72
2022-09-20T08:59:39.938Z,100843.63
2022-09-20T09:02:41.860Z,100847.41
2022-09-20T09:05:55.002Z,100848.66
2022-09-20T09:08:59.706Z,100845.72
2022-09-20T09:12:01.947Z,100844.06
2022-09-20T09:15:23.178Z,100835.47
2022-09-20T09:18:32.244Z,100836.53
2022-09-20T09:21:34.545Z,100821.66
2022-09-20T09:24:36.628Z,100850.13
2022-09-20T09:28:00.561Z,100841.13
2022-09-20T09:31:15.998Z,100841.56
2022-09-20T09:34:28.720Z,100832.13
2022-09-20T09:37:32.356Z,100836.28
2022-09-20T09:40:35.489Z,100834.63
2022-09-20T09:43:40.606Z,100838.19
2022-09-20T09:46:42.631Z,100815.16
2022-09-20T09:50:02.562Z,100837.78
2022-09-20T09:53:22.905Z,100824.34
2022-09-20T09:56:47.868Z,100837.59
2022-09-20T10:00:21.018Z,100837.16
2022-09-20T10:03:45.542Z,100843.44
2022-09-20T10:07:09.130Z,100824.38
2022-09-20T10:10:39.713Z,100843.63
2022-09-20T10:13:50.500Z,100849.91
2022-09-20T10:16:58.217Z,100853.69
2022-09-20T10:20:23.078Z,100844.03
2022-09-20T10:24:02.598Z,100843.19
2022-09-20T10:27:05.239Z,100843.44
2022-09-20T10:30:19.981Z,100829.84
2022-09-20T10:33:38.539Z,100819.56
2022-09-20T10:37:23.916Z,100836.94
2022-09-20T10:41:02.524Z,100845.31
2022-09-20T10:44:13.074Z,100803.22
2022-09-20T10:47:20.241Z,100834.84
2022-09-20T10:50:30.958Z,100827.91
2022-09-20T10:54:02.423Z,100824.78
2022-09-20T10:57:41.215Z,100822.91
2022-09-20T11:01:13.590Z,100825.59
2022-09-20T11:04:21.432Z,100824.81
2022-09-20T11:07:58.459Z,100814.75
2022-09-20T11:11:09.501Z,100790.03
2022-09-20T11:14:16.006Z,100817.00
2022-09-20T11:17:27.038Z,100829.59
2022-09-20T11:20:45.181Z,100787.34
2022-09-20T11:24:19.368Z,100825.81
2022-09-20T11:27:29.749Z,100828.34
2022-09-20T11:30:35.495Z,100828.97
2022-09-20T11:33:44.390Z,100832.75
2022-09-20T11:36:54.695Z,100838.41
2022-09-20T11:40:02.757Z,100820.19
2022-09-20T11:43:08.577Z,100818.53
2022-09-20T11:46:18.424Z,100834.22
2022-09-20T11:49:24.020Z,100827.72
2022-09-20T11:52:34.640Z,100826.88
2022-09-20T11:55:54.603Z,100834.41
2022-09-20T11:59:00.083Z,100830.66
2022-09-20T12:02:05.414Z,100828.56
2022-09-20T12:05:52.678Z,100838.59
2022-09-20T12:08:57.271Z,100827.09
2022-09-20T12:12:13.565Z,100827.72
2022-09-20T12:15:21.429Z,100836.06
2022-09-20T12:18:35.830Z,100828.78
2022-09-20T12:21:59.600Z,100829.78
2022-09-20T12:25:39.514Z,100825.63
2022-09-20T12:28:49.972Z,100827.72
2022-09-20T12:31:54.830Z,100823.75
2022-09-20T12:34:56.760Z,100820.19
2022-09-20T12:38:27.348Z,100821.44
2022-09-20T12:42:04.494Z,100821.44
2022-09-20T12:45:26.864Z,100808.66
2022-09-20T12:48:35.690Z,100822.03
2022-09-20T12:51:56.328Z,100829.59
2022-09-20T12:55:03.835Z,100821.22
2022-09-20T12:58:14.593Z,100821.84
2022-09-20T13:01:16.633Z,100821.44
2022-09-20T13:04:55.852Z,100821.03
2022-09-20T13:08:21.618Z,100813.69
2022-09-20T13:11:42.553Z,100818.28
2022-09-20T13:14:44.953Z,100829.19
2022-09-20T13:17:52.084Z,100809.06
2022-09-20T13:20:56.663Z,100820.19
2022-09-20T13:23:59.562Z,100824.81
2022-09-20T13:27:19.299Z,100823.75
2022-09-20T13:30:24.720Z,100818.72
2022-09-20T13:33:26.760Z,100823.94
2022-09-20T13:36:30.414Z,100823.31
2022-09-20T13:39:37.448Z,100813.69
2022-09-20T13:42:39.575Z,100823.09
2022-09-20T13:45:43.496Z,100823.50
2022-09-20T13:48:52.735Z,100826.88
2022-09-20T13:51:54.758Z,100806.78
2022-09-20T13:54:57.085Z,100819.13
2022-09-20T13:58:07.158Z,100807.63
2022-09-20T14:01:21.917Z,100824.16
2022-09-20T14:04:26.164Z,100796.31
2022-09-20T14:07:29.668Z,100812.03
2022-09-20T14:10:37.080Z,100840.09
2022-09-20T14:13:44.002Z,100801.78
2022-09-20T14:16:49.089Z,100828.34
2022-09-20T14:19:58.372Z,100825.22
2022-09-20T14:23:01.197Z,100823.94
2022-09-20T14:26:25.764Z,100820.78
2022-09-20T14:29:40.132Z,100836.94
2022-09-20T14:32:52.856Z,100830.84
2022-09-20T14:35:54.769Z,100834.22
2022-09-20T14:39:05.575Z,100836.31
2022-09-20T14:42:21.055Z,100834.41
2022-09-20T14:45:30.451Z,100832.75
2022-09-20T14:48:35.742Z,100835.69
2022-09-20T14:51:37.688Z,100834.81
2022-09-20T14:54:41.300Z,100834.63
2022-09-20T14:57:43.315Z,100835.88
2022-09-20T15:00:51.359Z,100840.28
2022-09-20T15:03:54.010Z,100807.00
2022-09-20T15:07:00.295Z,100835.88
2022-09-20T15:10:02.361Z,100835.69
2022-09-20T15:13:04.375Z,100790.44
2022-09-20T15:16:06.867Z,100829.41
2022-09-20T15:19:09.528Z,100838.00
2022-09-20T15:22:11.936Z,100835.06
2022-09-20T15:25:16.382Z,100825.00
2022-09-20T15:28:19.252Z,100829.84
2022-09-20T15:31:21.336Z,100828.78
2022-09-20T15:34:23.553Z,100833.59
2022-09-20T15:37:25.586Z,100825.00
2022-09-20T15:40:28.671Z,100817.88
2022-09-20T15:43:31.289Z,100841.13
2022-09-20T15:46:33.730Z,100842.81
2022-09-20T15:49:35.818Z,100847.19
2022-09-20T15:52:42.492Z,100836.53
2022-09-20T15:55:44.676Z,100848.44
2022-09-20T15:58:50.243Z,100854.53
2022-09-20T16:01:52.272Z,100841.13
2022-09-20T16:04:55.899Z,100843.63
2022-09-20T16:07:58.362Z,100848.44
2022-09-20T16:11:01.015Z,100849.09
2022-09-20T16:14:03.468Z,100846.16
2022-09-20T16:17:05.375Z,100852.22
2022-09-20T16:20:07.988Z,100861.22
2022-09-20T16:23:10.196Z,100859.34
2022-09-20T16:26:13.262Z,100867.72
2022-09-20T16:29:17.002Z,100873.16
2022-09-20T16:32:18.981Z,100846.16
2022-09-20T16:35:20.832Z,100884.28
2022-09-20T16:38:23.733Z,100887.84
2022-09-20T16:41:28.690Z,100885.94
2022-09-20T16:44:32.233Z,100884.47
2022-09-20T16:47:34.176Z,100905.84
2022-09-20T16:50:36.068Z,100893.91
2022-09-20T16:53:38.401Z,100899.56
2022-09-20T16:56:43.301Z,100900.41
2022-09-20T16:59:46.510Z,100902.28
2022-09-20T17:02:51.285Z,100896.19
2022-09-20T17:05:53.378Z,100907.94
2022-09-20T17:08:59.036Z,100902.69
2022-09-20T17:12:03.720Z,100906.91
2022-09-20T17:15:06.293Z,100905.44
2022-09-20T17:18:12.351Z,100909.81
2022-09-20T17:21:17.644Z,100914.22
2022-09-20T17:24:21.699Z,100917.78
2022-09-20T17:27:24.197Z,100923.25
2022-09-20T17:30:26.795Z,100922.59
2022-09-20T17:33:31.269Z,100926.38
2022-09-20T17:36:38.152Z,100931.81
2022-09-20T17:39:41.133Z,100926.38
2022-09-20T17:42:44.347Z,100935.38
2022-09-20T17:45:46.287Z,100941.88
2022-09-20T17:48:51.778Z,100935.56
2022-09-20T17:51:55.820Z,100933.28
2022-09-20T17:54:57.703Z,100945.84
2022-09-20T17:58:00.108Z,100945.84
2022-09-20T18:01:08.660Z,100946.03
2022-09-20T18:04:14.086Z,100953.19
2022-09-20T18:07:16.362Z,100958.81
2022-09-20T18:10:18.359Z,100956.31
2022-09-20T18:13:20.438Z,100958.81
2022-09-20T18:16:22.535Z,100968.69
2022-09-20T18:19:24.736Z,100936.63
2022-09-20T18:22:26.740Z,100971.59
2022-09-20T18:25:28.632Z,100978.69
2022-09-20T18:28:31.318Z,100969.91
2022-09-20T18:31:54.555Z,100983.31
2022-09-20T18:34:56.533Z,100974.31
2022-09-20T18:37:58.589Z,100983.31
2022-09-20T18:41:01.577Z,100970.53
2022-09-20T18:44:07.178Z,100985.19
2022-09-20T18:47:09.732Z,100981.66
2022-09-20T18:50:12.116Z,100982.69
2022-09-20T18:53:14.149Z,100962.97
2022-09-20T18:56:33.719Z,100989.81
2022-09-20T18:59:36.014Z,100977.00
2022-09-20T19:03:16.939Z,100995.25
2022-09-20T19:06:21.649Z,100989.16
2022-09-20T19:09:31.078Z,100987.50
2022-09-20T19:12:53.654Z,100988.13
2022-09-20T19:16:30.673Z,100989.81
2022-09-20T19:19:45.941Z,100990.44
2022-09-20T19:23:29.764Z,101004.88
2022-09-20T19:26:38.141Z,101006.78
2022-09-20T19:29:40.949Z,101007.59
2022-09-20T19:32:44.390Z,101007.19
2022-09-20T19:35:50.062Z,101008.84
2022-09-20T19:39:13.731Z,101014.09
2022-09-20T19:42:41.513Z,101022.06
2022-09-20T19:46:01.461Z,101020.38
2022-09-20T19:49:23.394Z,101023.94
2022-09-20T19:52:25.663Z,101026.84
2022-09-20T19:55:27.923Z,101013.88
2022-09-20T19:58:30.122Z,101019.53
2022-09-20T20:01:32.859Z,101026.66
2022-09-20T20:04:35.139Z,101025.19
2022-09-20T20:07:56.537Z,101020.78
2022-09-20T20:11:32.264Z,101023.69
2022-09-20T20:14:58.346Z,101027.69
2022-09-20T20:18:30.078Z,101034.81
2022-09-20T20:22:00.134Z,101031.88
2022-09-20T20:25:02.270Z,101021.81
2022-09-20T20:28:04.218Z,101036.28
2022-09-20T20:31:07.163Z,101031.66
2022-09-20T20:34:09.190Z,101033.75
2022-09-20T20:37:11.191Z,101011.50
2022-09-20T20:40:14.937Z,101043.63
2022-09-20T20:43:17.087Z,101038.78
2022-09-20T20:46:19.097Z,101043.19
2022-09-20T20:49:21.163Z,101040.47
2022-09-20T20:52:23.118Z,101042.13
2022-09-20T20:55:25.144Z,101046.75
2022-09-20T20:58:31.174Z,101053.88
2022-09-20T21:01:35.962Z,101040.66
2022-09-20T21:04:39.973Z,101043.38
2022-09-20T21:07:42.013Z,101037.75
2022-09-20T21:10:43.994Z,101031.19
2022-09-20T21:13:48.469Z,101044.03
2022-09-20T21:16:51.868Z,101040.25
2022-09-20T21:19:53.877Z,101035.84
2022-09-20T21:22:56.632Z,101035.84
2022-09-20T21:26:10.962Z,101047.16
2022-09-20T21:29:15.720Z,101045.25
2022-09-20T21:32:17.916Z,101046.50
2022-09-20T21:35:20.809Z,101045.47
2022-09-20T21:38:22.827Z,101049.88
2022-09-20T21:41:27.508Z,101045.47
2022-09-20T21:44:30.012Z,101025.28
2022-09-20T21:47:31.957Z,101044.63
2022-09-20T21:50:34.285Z,101041.06
2022-09-20T21:53:37.094Z,101042.75
2022-09-20T21:56:40.673Z,101039.16
2022-09-20T21:59:42.833Z,101026.63
2022-09-20T22:02:44.896Z,101034.78
2022-09-20T22:05:47.713Z,101042.75
2022-09-20T22:08:53.455Z,101043.59
2022-09-20T22:11:55.445Z,101040.81
2022-09-20T22:14:57.388Z,101045.47
2022-09-20T22:17:59.403Z,101048.38
2022-09-20T22:21:06.626Z,101048.56
2022-09-20T22:24:10.775Z,101052.97
2022-09-20T22:27:12.762Z,101063.19
2022-09-20T22:30:14.808Z,101059.88
2022-09-20T22:33:16.813Z,101048.50
2022-09-20T22:36:23.785Z,101044.72
2022-09-20T22:39:25.962Z,101045.56
2022-09-20T22:42:27.880Z,101043.72
2022-09-20T22:45:32.179Z,101020.22
2022-09-20T22:48:35.826Z,101045.41
2022-09-20T22:51:38.445Z,101053.34
2022-09-20T22:54:40.517Z,101057.53
2022-09-20T22:57:42.464Z,101057.53
2022-09-20T23:00:44.464Z,101052.75
2022-09-20T23:03:52.787Z,101059.88
2022-09-20T23:06:55.305Z,101043.72
2022-09-20T23:09:57.323Z,101026.53
2022-09-20T23:12:59.527Z,101050.66
2022-09-20T23:16:10.515Z,101053.59
2022-09-20T23:19:13.515Z,101047.72
2022-09-20T23:22:15.447Z,101052.75
2022-09-20T23:25:17.399Z,101035.75
2022-09-20T23:28:19.350Z,101061.53
2022-09-20T23:31:21.564Z,101059.88
2022-09-20T23:34:23.537Z,101063.41
2022-09-20T23:37:25.913Z,101052.75
2022-09-20T23:40:28.319Z,101057.16
2022-09-20T23:43:30.368Z,101059.47
2022-09-20T23:46:33.402Z,101054.22
2022-09-20T23:49:36.833Z,101046.88
2022-09-20T23:52:38.797Z,101055.03
2022-09-20T23:55:40.971Z,101048.97
2022-09-20T23:58:44.351Z,101028.19
